Time;durP1;ratioP1;P1;durP2;ratioP2;P2;SDS_P1;SDS_P2;PMS_P1;PMS_P2;Temp;Humidity;BMP_temperature;BMP_pressure;BME280_temperature;BME280_humidity;BME280_pressure;Samples;Min_cycle;Max_cycle;Signal;HPM_P1;HPM_P2
2022/02/06 00:05:03;;;;;;;2.60;1.60;;;6.50;36.30;;;;;;10360803;28;20229;-69
2022/02/06 00:10:07;;;;;;;2.30;1.43;;;6.50;36.40;;;;;;10366516;28;20238;-69
2022/02/06 00:15:18;;;;;;;2.30;1.50;;;6.50;36.30;;;;;;10368550;28;20666;-72
2022/02/06 00:20:24;;;;;;;3.13;1.70;;;6.50;36.20;;;;;;10367296;28;20729;-72
2022/02/06 00:25:33;;;;;;;4.00;1.50;;;6.50;36.40;;;;;;10369040;28;20225;-72
2022/02/06 00:30:42;;;;;;;3.03;1.50;;;6.50;36.30;;;;;;10372462;28;20225;-72
2022/02/06 00:36:03;;;;;;;1.70;1.40;;;6.40;36.20;;;;;;10378530;28;20245;-72
2022/02/06 00:46:27;;;;;;;2.80;1.33;;;6.40;36.30;;;;;;10376245;28;20237;-71
2022/02/06 00:51:38;;;;;;;4.77;1.80;;;6.40;36.30;;;;;;10377607;28;20706;-71
2022/02/06 00:56:41;;;;;;;3.57;1.20;;;6.40;36.40;;;;;;10382110;28;20726;-71
2022/02/06 01:01:46;;;;;;;2.77;1.43;;;6.40;36.20;;;;;;10383615;28;20236;-71
2022/02/06 01:06:49;;;;;;;1.93;1.40;;;6.40;36.20;;;;;;10381088;28;20225;-71
2022/02/06 01:11:53;;;;;;;1.93;1.20;;;6.40;36.20;;;;;;10381025;28;20221;-71
2022/02/06 01:17:05;;;;;;;3.00;1.50;;;6.40;36.20;;;;;;10382151;28;20240;-71
2022/02/06 01:22:12;;;;;;;3.00;1.83;;;6.40;36.20;;;;;;10378677;28;20237;-71
2022/02/06 01:27:19;;;;;;;3.33;1.50;;;6.40;36.20;;;;;;10380258;28;20226;-71
2022/02/06 01:32:32;;;;;;;3.53;1.60;;;6.30;36.20;;;;;;10385180;28;20238;-72
2022/02/06 01:37:40;;;;;;;3.63;1.30;;;6.30;36.20;;;;;;10385593;28;20222;-72
2022/02/06 01:42:47;;;;;;;2.03;1.50;;;6.30;36.30;;;;;;10382008;28;20730;-72
2022/02/06 02:04:06;;;;;;;2.73;1.40;;;6.20;36.20;;;;;;10379545;28;20226;-72
2022/02/06 02:14:52;;;;;;;2.37;1.47;;;6.20;36.40;;;;;;10363957;28;20222;-72
2022/02/06 02:25:50;;;;;;;3.27;1.37;;;6.30;36.50;;;;;;10317484;28;20624;-72
2022/02/06 02:31:08;;;;;;;3.57;1.37;;;6.20;36.50;;;;;;10380570;28;20221;-73
2022/02/06 02:46:58;;;;;;;3.90;1.53;;;6.20;36.40;;;;;;10377200;28;20230;-72
2022/02/06 02:52:06;;;;;;;2.43;1.30;;;6.30;37.30;;;;;;10376597;28;20608;-72
2022/02/06 02:57:20;;;;;;;2.90;1.33;;;6.30;36.60;;;;;;10377337;28;20223;-72
2022/02/06 03:02:23;;;;;;;2.40;1.50;;;6.30;36.60;;;;;;10377337;28;20721;-72
2022/02/06 03:07:27;;;;;;;3.47;1.37;;;6.30;36.50;;;;;;10370781;28;20966;-72
2022/02/06 03:12:33;;;;;;;2.60;1.23;;;6.30;36.60;;;;;;10375870;28;20229;-72
2022/02/06 03:17:44;;;;;;;3.37;1.10;;;6.30;36.70;;;;;;10375462;28;20229;-72
2022/02/06 03:22:51;;;;;;;2.53;1.27;;;6.30;36.70;;;;;;10373763;28;20706;-72
2022/02/06 03:27:55;;;;;;;3.80;1.67;;;6.20;36.70;;;;;;10378456;28;20222;-72
2022/02/06 03:32:59;;;;;;;2.33;1.40;;;6.20;36.70;;;;;;10374102;28;20252;-72
2022/02/06 03:38:02;;;;;;;2.87;1.40;;;6.20;36.80;;;;;;10376360;28;20218;-71
2022/02/06 03:43:12;;;;;;;2.67;1.30;;;6.30;36.90;;;;;;10378941;28;20229;-72
2022/02/06 03:48:20;;;;;;;3.50;1.37;;;6.20;36.90;;;;;;10369696;28;20217;-72
2022/02/06 03:53:26;;;;;;;4.50;1.43;;;6.20;36.90;;;;;;10377098;28;20793;-72
2022/02/06 03:58:30;;;;;;;3.33;1.40;;;6.20;37.10;;;;;;10374255;28;20624;-70
2022/02/06 04:03:33;;;;;;;1.53;1.20;;;6.30;37.20;;;;;;10368476;28;20623;-70
2022/02/06 04:08:38;;;;;;;2.17;1.23;;;6.30;37.10;;;;;;10378236;28;20230;-70
2022/02/06 04:13:54;;;;;;;3.03;1.40;;;6.30;37.10;;;;;;10373099;28;20240;-70
2022/02/06 04:19:06;;;;;;;1.80;1.20;;;6.30;37.30;;;;;;10376481;28;20245;-71
2022/02/06 04:24:09;;;;;;;4.17;1.30;;;6.40;37.30;;;;;;10369209;28;20222;-71
2022/02/06 04:29:14;;;;;;;3.80;1.33;;;6.40;37.40;;;;;;10376163;28;20225;-71
2022/02/06 04:34:22;;;;;;;4.07;1.60;;;6.40;37.30;;;;;;10372803;28;20226;-70
2022/02/06 04:51:08;;;;;;;2.53;1.50;;;6.50;37.30;;;;;;10365824;28;20241;-71
2022/02/06 05:28:27;;;;;;;3.93;1.50;;;6.70;37.30;;;;;;10357834;28;20226;-71
2022/02/06 05:33:31;;;;;;;3.53;1.83;;;6.80;37.30;;;;;;10373323;28;20226;-71
2022/02/06 05:38:35;;;;;;;3.57;1.57;;;6.80;37.20;;;;;;10376374;28;20234;-68
2022/02/06 05:43:38;;;;;;;4.00;1.40;;;6.80;37.30;;;;;;10379215;28;20222;-68
2022/02/06 05:48:42;;;;;;;3.33;1.47;;;6.90;37.30;;;;;;10377837;28;20757;-68
2022/02/06 05:53:45;;;;;;;3.20;1.43;;;6.90;37.20;;;;;;10379263;28;20222;-68
2022/02/06 05:58:48;;;;;;;2.40;1.40;;;7.00;37.20;;;;;;10385301;28;20805;-68
2022/02/06 06:03:53;;;;;;;3.40;1.33;;;7.00;37.10;;;;;;10376058;28;20230;-68
2022/02/06 06:08:56;;;;;;;7.27;1.47;;;7.00;37.10;;;;;;10379049;28;20218;-68
2022/02/06 06:13:59;;;;;;;4.10;1.50;;;7.00;37.00;;;;;;10378033;28;20305;-68
2022/02/06 06:19:05;;;;;;;3.53;1.60;;;7.10;37.00;;;;;;10381221;28;20226;-68
2022/02/06 06:24:10;;;;;;;3.27;1.50;;;7.10;37.00;;;;;;10373654;28;20589;-68
2022/02/06 06:29:14;;;;;;;3.87;1.50;;;7.20;36.90;;;;;;10374265;28;20288;-68
2022/02/06 06:34:18;;;;;;;3.07;1.20;;;7.20;36.90;;;;;;10375961;28;20232;-68
2022/02/06 06:39:32;;;;;;;3.10;1.80;;;7.20;36.70;;;;;;10375192;28;20239;-69
2022/02/06 06:44:35;;;;;;;3.17;1.33;;;7.20;36.80;;;;;;10375933;28;20214;-68
2022/02/06 06:49:40;;;;;;;2.43;1.50;;;7.20;36.70;;;;;;10377256;28;20226;-68
2022/02/06 06:54:46;;;;;;;5.20;1.50;;;7.30;36.80;;;;;;10376970;28;20223;-68
2022/02/06 07:05:17;;;;;;;3.27;1.50;;;7.30;36.80;;;;;;10380482;28;20222;-69
2022/02/06 07:10:20;;;;;;;3.50;1.50;;;7.30;36.50;;;;;;10378877;28;20720;-68
2022/02/06 07:15:26;;;;;;;2.27;1.30;;;7.30;36.70;;;;;;10375278;28;20230;-69
2022/02/06 07:20:32;;;;;;;2.47;1.40;;;7.40;36.80;;;;;;10372641;28;20598;-68
2022/02/06 07:25:38;;;;;;;3.27;1.50;;;7.40;36.50;;;;;;10373757;28;20336;-69
2022/02/06 07:30:43;;;;;;;3.23;1.63;;;7.40;36.60;;;;;;10371161;28;20233;-69
2022/02/06 07:35:47;;;;;;;2.33;1.30;;;7.40;36.70;;;;;;10373264;28;20229;-68
2022/02/06 07:40:51;;;;;;;3.70;1.50;;;7.40;36.50;;;;;;10374178;28;20608;-68
2022/02/06 07:45:54;;;;;;;4.37;1.50;;;7.50;36.70;;;;;;10377833;28;20244;-69
2022/02/06 07:50:59;;;;;;;1.77;1.40;;;7.50;37.40;;;;;;10372874;28;20238;-69
2022/02/06 07:56:02;;;;;;;2.27;1.43;;;7.50;36.70;;;;;;10378080;28;20579;-73
2022/02/06 08:01:05;;;;;;;3.70;1.37;;;7.50;36.70;;;;;;10369127;28;20237;-73
2022/02/06 08:06:12;;;;;;;2.90;1.30;;;7.60;36.70;;;;;;10374361;28;20246;-73
2022/02/06 08:11:16;;;;;;;2.90;1.40;;;7.70;36.50;;;;;;10376354;28;20225;-70
2022/02/06 08:16:20;;;;;;;2.53;1.40;;;7.70;36.60;;;;;;10375368;28;20703;-69
2022/02/06 08:21:24;;;;;;;3.60;1.53;;;7.70;36.50;;;;;;10375562;28;20232;-69
2022/02/06 08:26:27;;;;;;;2.70;1.90;;;7.70;36.40;;;;;;10365680;28;20678;-69
2022/02/06 08:31:30;;;;;;;3.47;1.87;;;7.70;36.50;;;;;;10362935;28;20276;-68
2022/02/06 08:36:35;;;;;;;2.90;1.67;;;7.70;36.50;;;;;;10358935;28;20226;-68
2022/02/06 08:41:41;;;;;;;4.17;1.77;;;7.80;36.40;;;;;;10362555;28;20672;-69
2022/02/06 08:46:44;;;;;;;2.77;1.27;;;7.80;36.50;;;;;;10368541;28;20226;-70
2022/02/06 08:51:48;;;;;;;3.67;1.50;;;7.80;36.30;;;;;;10369855;28;20745;-70
2022/02/06 08:56:52;;;;;;;2.23;1.30;;;7.90;36.30;;;;;;10374032;28;20221;-70
2022/02/06 09:01:55;;;;;;;4.27;1.50;;;8.00;36.30;;;;;;10371605;28;20246;-70
2022/02/06 09:07:02;;;;;;;2.73;1.70;;;8.00;36.20;;;;;;10371740;28;20234;-69
2022/02/06 09:12:06;;;;;;;1.60;1.43;;;8.00;36.00;;;;;;10380665;28;20590;-68
2022/02/06 09:17:10;;;;;;;2.37;1.40;;;8.10;36.20;;;;;;10380655;28;20321;-68
2022/02/06 09:22:15;;;;;;;2.93;1.60;;;8.10;36.20;;;;;;10380320;28;20229;-68
2022/02/06 09:27:18;;;;;;;3.83;1.70;;;8.20;36.00;;;;;;10377793;28;20222;-68
2022/02/06 09:37:41;;;;;;;7.40;5.30;;;8.40;36.00;;;;;;10376419;28;20856;-69
2022/02/06 09:42:49;;;;;;;5.27;2.77;;;8.50;35.50;;;;;;10380548;28;20230;-69
2022/02/06 09:47:54;;;;;;;4.07;2.03;;;8.60;35.70;;;;;;10379694;28;20805;-69
2022/02/06 09:52:58;;;;;;;4.17;2.03;;;8.60;35.50;;;;;;10372209;28;20234;-69
2022/02/06 09:58:17;;;;;;;3.40;1.70;;;8.70;35.50;;;;;;10370535;28;20233;-71
2022/02/06 10:03:22;;;;;;;3.33;1.57;;;8.80;35.60;;;;;;10374716;28;20597;-71
2022/02/06 10:08:35;;;;;;;2.47;1.30;;;8.80;35.30;;;;;;10382037;28;20237;-72
2022/02/06 10:13:39;;;;;;;2.37;1.27;;;8.90;34.70;;;;;;10381868;28;20226;-72
2022/02/06 10:18:45;;;;;;;2.47;1.40;;;9.00;35.30;;;;;;10382725;28;20221;-71
2022/02/06 10:24:01;;;;;;;2.97;1.70;;;9.00;35.00;;;;;;10378155;28;20237;-71
2022/02/06 10:29:23;;;;;;;2.60;1.40;;;9.10;34.90;;;;;;10378337;28;20226;-71
2022/02/06 10:34:34;;;;;;;4.03;1.50;;;9.10;35.00;;;;;;10380397;28;20332;-71
2022/02/06 10:39:40;;;;;;;3.10;1.40;;;9.20;35.10;;;;;;10378185;28;20222;-72
2022/02/06 10:44:44;;;;;;;2.37;1.20;;;9.30;34.60;;;;;;10378964;28;20230;-72
2022/02/06 10:50:04;;;;;;;2.63;1.30;;;9.30;34.90;;;;;;10379980;28;20230;-71
2022/02/06 10:55:10;;;;;;;3.47;1.60;;;9.40;34.30;;;;;;10379230;28;20221;-70
2022/02/06 11:00:14;;;;;;;2.97;1.50;;;9.40;34.80;;;;;;10376001;28;20244;-71
2022/02/06 11:05:30;;;;;;;3.37;1.50;;;9.50;34.50;;;;;;10374798;28;20240;-70
2022/02/06 11:10:35;;;;;;;2.33;1.20;;;9.50;34.60;;;;;;10378373;28;20226;-70
2022/02/06 11:15:46;;;;;;;4.40;1.53;;;9.60;34.50;;;;;;10379450;28;20233;-70
2022/02/06 11:20:57;;;;;;;3.97;1.63;;;9.60;34.50;;;;;;10380240;28;20218;-70
2022/02/06 11:26:02;;;;;;;3.90;2.07;;;9.70;34.50;;;;;;10379118;28;20312;-71
2022/02/06 11:31:06;;;;;;;2.10;1.67;;;9.70;34.60;;;;;;10373152;28;20257;-73
2022/02/06 11:36:15;;;;;;;1.87;1.17;;;9.80;34.70;;;;;;10376872;28;20225;-70
2022/02/06 11:47:09;;;;;;;2.97;1.40;;;10.00;33.80;;;;;;10369399;28;20238;-72
2022/02/06 11:52:12;;;;;;;2.40;1.20;;;10.00;33.10;;;;;;10370308;28;20229;-73
2022/02/06 11:57:26;;;;;;;2.33;1.20;;;10.10;33.70;;;;;;10369893;28;20226;-73
2022/02/06 12:02:30;;;;;;;4.27;2.60;;;10.10;32.80;;;;;;10372059;28;20257;-73
2022/02/06 12:07:54;;;;;;;3.33;1.53;;;10.20;33.20;;;;;;10368804;28;20230;-73
2022/02/06 12:13:30;;;;;;;2.60;1.27;;;10.20;32.60;;;;;;10366952;28;20301;-73
2022/02/06 12:18:34;;;;;;;2.97;1.40;;;10.30;32.70;;;;;;10363023;28;20454;-71
2022/02/06 12:23:41;;;;;;;4.23;2.70;;;10.40;32.90;;;;;;10367170;28;20588;-71
2022/02/06 12:28:49;;;;;;;2.20;1.50;;;10.40;32.80;;;;;;10371997;28;20230;-71
2022/02/06 12:33:57;;;;;;;3.63;1.60;;;10.40;32.40;;;;;;10374053;28;20609;-73
2022/02/06 12:39:01;;;;;;;3.60;2.15;;;10.50;33.00;;;;;;10373714;28;20722;-71
2022/02/06 12:44:09;;;;;;;3.63;2.10;;;10.50;33.00;;;;;;10375892;28;20585;-71
2022/02/06 12:49:15;;;;;;;3.13;2.27;;;10.50;32.40;;;;;;10383876;28;20244;-72
2022/02/06 12:54:18;;;;;;;5.90;1.90;;;10.50;32.80;;;;;;10382319;28;20236;-69
2022/02/06 12:59:24;;;;;;;3.23;1.87;;;10.60;32.60;;;;;;10387343;28;21364;-69
2022/02/06 13:04:30;;;;;;;3.23;2.20;;;10.60;32.30;;;;;;10382219;28;20229;-69
2022/02/06 13:09:38;;;;;;;2.53;1.60;;;10.60;32.20;;;;;;10376722;28;20248;-69
2022/02/06 13:14:58;;;;;;;1.97;1.80;;;10.50;32.20;;;;;;10378559;28;20987;-73
2022/02/06 13:20:13;;;;;;;1.67;1.17;;;10.50;32.20;;;;;;10382930;28;20249;-69
2022/02/06 13:36:27;;;;;;;2.17;1.20;;;10.40;31.90;;;;;;10322621;28;20589;-69
2022/02/06 13:41:32;;;;;;;1.50;1.40;;;10.40;31.90;;;;;;10375011;28;20700;-73
2022/02/06 13:46:37;;;;;;;3.20;1.80;;;10.30;32.20;;;;;;10375848;28;20626;-68
2022/02/06 13:51:45;;;;;;;1.40;1.30;;;10.20;32.30;;;;;;10372666;28;20232;-72
2022/02/06 13:56:57;;;;;;;3.23;2.00;;;10.20;32.30;;;;;;10370487;28;20232;-72
2022/02/06 14:02:07;;;;;;;3.07;1.90;;;10.20;32.30;;;;;;10369945;28;20710;-70
2022/02/06 14:07:14;;;;;;;3.23;2.17;;;10.10;32.10;;;;;;10373903;28;20234;-72
2022/02/06 14:12:20;;;;;;;3.60;1.73;;;10.10;32.00;;;;;;10377864;28;20240;-72
2022/02/06 14:17:26;;;;;;;3.00;1.30;;;10.10;32.20;;;;;;10377429;28;20221;-72
2022/02/06 14:22:32;;;;;;;2.23;1.23;;;10.10;31.80;;;;;;10377862;28;20226;-71
2022/02/06 14:27:37;;;;;;;3.03;1.30;;;10.20;32.10;;;;;;10375499;28;20226;-72
2022/02/06 14:33:00;;;;;;;1.63;0.93;;;10.20;32.00;;;;;;10374574;28;20234;-71
2022/02/06 14:38:06;;;;;;;1.37;1.27;;;10.20;31.70;;;;;;10377609;28;20782;-71
2022/02/06 14:43:14;;;;;;;1.73;1.17;;;10.20;31.80;;;;;;10376257;28;20237;-70
2022/02/06 14:48:20;;;;;;;3.47;1.50;;;10.20;31.90;;;;;;10379806;28;20612;-70
2022/02/06 14:53:23;;;;;;;1.97;1.30;;;10.20;31.90;;;;;;10370669;28;20752;-70
2022/02/06 14:58:27;;;;;;;1.50;1.00;;;10.20;32.00;;;;;;10376945;28;21442;-70
2022/02/06 15:03:31;;;;;;;1.97;1.10;;;10.30;32.30;;;;;;10375605;28;20222;-70
2022/02/06 15:08:35;;;;;;;1.70;1.40;;;10.30;31.90;;;;;;10374481;28;20218;-70
2022/02/06 15:13:38;;;;;;;1.30;1.13;;;10.40;32.20;;;;;;10379881;28;20231;-70
2022/02/06 15:18:52;;;;;;;0.97;0.87;;;10.40;32.40;;;;;;10374691;28;20239;-70
2022/02/06 15:23:55;;;;;;;2.63;1.40;;;10.40;31.70;;;;;;10371549;28;20968;-70
2022/02/06 15:28:59;;;;;;;1.20;0.80;;;10.40;32.00;;;;;;10372911;28;20233;-70
2022/02/06 15:34:03;;;;;;;1.37;1.13;;;10.50;31.90;;;;;;10373158;28;20226;-70
2022/02/06 15:39:16;;;;;;;2.80;1.20;;;10.50;31.90;;;;;;10376150;28;20624;-70
2022/02/06 15:44:20;;;;;;;1.37;1.27;;;10.50;31.70;;;;;;10368289;28;20237;-70
2022/02/06 15:49:24;;;;;;;1.10;1.00;;;10.60;32.00;;;;;;10370030;28;20330;-70
2022/02/06 15:54:28;;;;;;;1.97;1.13;;;10.60;31.80;;;;;;10371543;28;20225;-70
2022/02/06 15:59:31;;;;;;;1.73;1.10;;;10.60;31.80;;;;;;10373938;28;20226;-71
2022/02/06 16:04:35;;;;;;;1.20;1.00;;;10.70;32.00;;;;;;10370895;28;20717;-70
2022/02/06 16:09:41;;;;;;;1.47;1.00;;;10.70;31.90;;;;;;10371765;28;20545;-70
2022/02/06 16:14:44;;;;;;;2.10;1.40;;;10.60;31.90;;;;;;10369401;28;20225;-70
2022/02/06 16:19:48;;;;;;;2.17;1.20;;;10.60;32.00;;;;;;10369225;28;20321;-74
2022/02/06 16:24:52;;;;;;;1.83;1.40;;;10.60;32.30;;;;;;10368676;28;20233;-74
2022/02/06 16:29:57;;;;;;;2.00;1.30;;;10.60;32.40;;;;;;10371390;28;20226;-74
2022/02/06 16:35:01;;;;;;;2.00;1.50;;;10.60;32.60;;;;;;10370206;28;20715;-74
2022/02/06 16:40:06;;;;;;;2.10;1.37;;;10.50;32.80;;;;;;10369769;28;20251;-74
2022/02/06 16:45:09;;;;;;;1.60;1.40;;;10.40;33.10;;;;;;10370920;28;20226;-74
2022/02/06 16:50:14;;;;;;;2.03;1.00;;;10.40;33.40;;;;;;10370751;28;20233;-74
2022/02/06 16:55:18;;;;;;;1.30;1.10;;;10.30;33.80;;;;;;10369033;28;20229;-74
2022/02/06 17:00:21;;;;;;;1.50;0.93;;;10.20;34.00;;;;;;10370644;28;20609;-74
2022/02/06 17:05:25;;;;;;;1.20;1.10;;;10.10;34.10;;;;;;10375907;28;20908;-74
2022/02/06 17:10:30;;;;;;;1.13;1.00;;;10.00;34.50;;;;;;10370444;28;20234;-74
2022/02/06 17:15:33;;;;;;;1.90;1.20;;;9.90;35.70;;;;;;10371408;28;20235;-74
2022/02/06 17:20:38;;;;;;;0.87;0.87;;;9.80;35.70;;;;;;10371833;28;20279;-77
2022/02/06 17:25:42;;;;;;;2.33;1.00;;;9.60;36.50;;;;;;10368734;28;20604;-74
2022/02/06 17:30:45;;;;;;;1.90;1.10;;;9.50;36.60;;;;;;10364111;28;20234;-74
2022/02/06 17:35:50;;;;;;;1.20;1.00;;;9.40;36.80;;;;;;10379561;28;20226;-74
2022/02/06 17:40:53;;;;;;;1.60;0.90;;;9.30;36.80;;;;;;10378832;28;20230;-74
2022/02/06 17:45:59;;;;;;;1.20;1.10;;;9.30;37.10;;;;;;10374883;28;20565;-74
2022/02/06 17:51:06;;;;;;;1.07;0.93;;;9.20;37.00;;;;;;10376677;28;20318;-73
2022/02/06 17:56:10;;;;;;;1.00;1.00;;;9.20;37.40;;;;;;10379255;28;21041;-74
2022/02/06 18:01:13;;;;;;;1.10;0.90;;;9.20;37.20;;;;;;10378975;28;20229;-74
2022/02/06 18:06:18;;;;;;;1.27;1.10;;;9.20;37.30;;;;;;10375310;28;20222;-74
2022/02/06 18:11:22;;;;;;;1.63;1.00;;;9.20;37.70;;;;;;10380117;28;20290;-74
2022/02/06 18:16:25;;;;;;;1.43;1.20;;;9.20;37.40;;;;;;10376318;28;20837;-74
2022/02/06 18:21:29;;;;;;;1.43;1.17;;;9.30;37.50;;;;;;10377461;28;20733;-74
2022/02/06 18:26:32;;;;;;;1.13;0.80;;;9.30;37.90;;;;;;10373950;28;20217;-73
2022/02/06 18:31:36;;;;;;;1.10;1.00;;;9.30;37.70;;;;;;10376482;28;20577;-73
2022/02/06 18:36:40;;;;;;;0.83;0.70;;;9.30;38.00;;;;;;10378517;28;20229;-74
2022/02/06 18:41:45;;;;;;;1.20;1.10;;;9.30;38.20;;;;;;10378293;28;20237;-74
2022/02/06 18:46:48;;;;;;;0.87;0.87;;;9.30;38.20;;;;;;10383756;28;20229;-73
2022/02/06 18:51:53;;;;;;;1.07;1.03;;;9.30;38.10;;;;;;10378126;28;20229;-74
2022/02/06 18:56:58;;;;;;;1.07;0.70;;;9.30;38.40;;;;;;10380133;28;20233;-74
2022/02/06 19:02:04;;;;;;;1.13;0.83;;;9.30;38.20;;;;;;10380171;28;20230;-74
2022/02/06 19:07:08;;;;;;;1.00;0.90;;;9.30;38.80;;;;;;10376250;28;20221;-73
2022/02/06 19:12:13;;;;;;;1.10;1.00;;;9.30;38.80;;;;;;10377555;28;20234;-74
2022/02/06 19:17:17;;;;;;;0.87;0.87;;;9.30;38.60;;;;;;10370288;28;20221;-74
2022/02/06 19:22:21;;;;;;;1.10;1.00;;;9.40;38.70;;;;;;10381120;28;20229;-74
2022/02/06 19:27:24;;;;;;;1.30;1.20;;;9.40;39.10;;;;;;10371017;28;20236;-74
2022/02/06 19:32:29;;;;;;;1.33;0.90;;;9.40;38.90;;;;;;10373003;28;20240;-74
2022/02/06 19:37:34;;;;;;;1.57;1.10;;;9.40;38.80;;;;;;10372546;28;20222;-74
2022/02/06 19:42:37;;;;;;;0.93;0.90;;;9.50;39.10;;;;;;10375224;28;20230;-74
2022/02/06 19:47:41;;;;;;;0.90;0.90;;;9.50;38.80;;;;;;10377786;28;20716;-73
2022/02/06 19:52:46;;;;;;;1.50;1.40;;;9.50;38.90;;;;;;10373949;28;20234;-74
2022/02/06 19:57:50;;;;;;;1.10;1.00;;;9.50;39.10;;;;;;10375707;28;20226;-74
2022/02/06 20:02:53;;;;;;;0.80;0.80;;;9.50;39.30;;;;;;10374120;28;20234;-74
2022/02/06 20:07:57;;;;;;;1.03;0.90;;;9.50;39.10;;;;;;10371653;28;20222;-74
2022/02/06 20:13:01;;;;;;;0.80;0.80;;;9.50;39.40;;;;;;10372827;28;20237;-74
2022/02/06 20:18:04;;;;;;;2.37;2.17;;;9.40;39.50;;;;;;10373468;28;20226;-74
2022/02/06 20:23:10;;;;;;;1.10;1.00;;;9.40;39.80;;;;;;10371489;28;20593;-70
2022/02/06 20:28:13;;;;;;;0.80;0.80;;;9.40;40.10;;;;;;10363726;28;20229;-70
2022/02/06 20:33:17;;;;;;;2.27;1.30;;;9.40;39.70;;;;;;10369127;28;20237;-70
2022/02/06 20:38:21;;;;;;;0.90;0.90;;;9.40;40.10;;;;;;10372352;28;20236;-70
2022/02/06 20:43:24;;;;;;;1.10;1.10;;;9.40;40.40;;;;;;10370865;28;20241;-70
2022/02/06 20:48:29;;;;;;;1.30;1.20;;;9.40;40.10;;;;;;10364563;28;20779;-70
2022/02/06 20:53:40;;;;;;;0.80;0.80;;;9.50;40.50;;;;;;10372867;28;20228;-70
2022/02/06 20:58:45;;;;;;;0.70;0.70;;;9.50;40.10;;;;;;10370990;28;20225;-70
2022/02/06 21:03:49;;;;;;;0.80;0.80;;;9.50;40.10;;;;;;10371432;28;20706;-70
2022/02/06 21:08:53;;;;;;;1.00;0.80;;;9.60;40.20;;;;;;10377778;28;20222;-70
2022/02/06 21:13:57;;;;;;;1.30;0.70;;;9.60;40.50;;;;;;10376343;28;20622;-70
2022/02/06 21:19:00;;;;;;;0.60;0.60;;;9.60;40.50;;;;;;10368968;28;20233;-70
2022/02/06 21:24:05;;;;;;;0.70;0.70;;;9.60;40.50;;;;;;10367293;28;20225;-70
2022/02/06 21:29:08;;;;;;;1.47;0.73;;;9.60;40.50;;;;;;10371749;28;20441;-74
2022/02/06 21:34:11;;;;;;;0.60;0.60;;;9.50;40.50;;;;;;10365430;28;20252;-74
2022/02/06 21:39:16;;;;;;;0.90;0.57;;;9.50;40.50;;;;;;10363470;28;20474;-74
2022/02/06 21:44:19;;;;;;;2.03;0.83;;;9.40;41.30;;;;;;10358871;28;20718;-71
2022/02/06 21:49:23;;;;;;;0.87;0.80;;;9.30;40.60;;;;;;10366653;28;20252;-69
2022/02/06 21:54:28;;;;;;;0.60;0.60;;;9.20;40.20;;;;;;10366973;28;20225;-69
2022/02/06 21:59:31;;;;;;;1.23;0.80;;;9.10;40.60;;;;;;10361658;28;20613;-69
2022/02/06 22:04:37;;;;;;;0.50;0.50;;;8.90;40.20;;;;;;10367845;28;20300;-69
2022/02/06 22:09:56;;;;;;;0.70;0.50;;;8.80;41.00;;;;;;10360083;28;20230;-69
2022/02/06 22:31:17;;;;;;;0.40;0.40;;;8.20;41.30;;;;;;10346684;28;20777;-69
2022/02/06 22:36:20;;;;;;;1.00;0.53;;;8.10;40.60;;;;;;10359218;28;20702;-69
2022/02/06 22:41:27;;;;;;;0.90;0.80;;;8.00;41.20;;;;;;10362757;28;20575;-73
2022/02/06 22:46:30;;;;;;;0.80;0.80;;;7.90;41.30;;;;;;10368500;28;20230;-73
2022/02/06 22:51:35;;;;;;;1.10;1.00;;;7.80;41.20;;;;;;10370165;28;20227;-73
2022/02/06 22:56:39;;;;;;;0.80;0.80;;;7.80;41.00;;;;;;10373403;28;21131;-73
2022/02/06 23:01:42;;;;;;;0.50;0.50;;;7.70;41.10;;;;;;10368004;28;20230;-73
2022/02/06 23:06:46;;;;;;;0.50;0.50;;;7.60;41.00;;;;;;10370434;28;20242;-73
2022/02/06 23:11:50;;;;;;;0.40;0.40;;;7.60;41.00;;;;;;10366246;28;20233;-73
2022/02/06 23:16:54;;;;;;;0.50;0.50;;;7.50;40.80;;;;;;10368896;28;20225;-73
2022/02/06 23:21:58;;;;;;;1.07;0.90;;;7.40;40.30;;;;;;10370451;28;20242;-73
2022/02/06 23:27:03;;;;;;;0.90;0.80;;;7.30;39.80;;;;;;10365678;28;20226;-73
2022/02/06 23:32:07;;;;;;;1.20;0.60;;;7.20;40.00;;;;;;10367326;28;20229;-74
2022/02/06 23:37:10;;;;;;;0.70;0.70;;;7.00;39.70;;;;;;10371168;28;20233;-74
2022/02/06 23:42:15;;;;;;;0.50;0.50;;;6.90;39.70;;;;;;10372346;28;20221;-74
2022/02/06 23:47:21;;;;;;;0.33;0.33;;;6.70;40.20;;;;;;10366923;28;20725;-74
2022/02/06 23:52:28;;;;;;;1.83;1.00;;;6.60;39.90;;;;;;10370038;28;20286;-74
2022/02/06 23:57:41;;;;;;;0.40;0.40;;;6.40;40.20;;;;;;10368544;28;20607;-73
